createdAt,value
2019-05-15T00:00:38.708Z,1021.50
2019-05-15T00:01:41.135Z,1021.43
2019-05-15T00:02:38.741Z,1021.43
2019-05-15T00:03:39.108Z,1021.45
2019-05-15T00:04:38.346Z,1021.43
2019-05-15T00:05:39.010Z,1021.41
2019-05-15T00:06:39.131Z,1021.41
2019-05-15T00:07:39.222Z,1021.43
2019-05-15T00:08:38.728Z,1021.43
2019-05-15T00:09:41.634Z,1021.43
2019-05-15T00:10:38.886Z,1021.43
2019-05-15T00:11:38.992Z,1021.39
2019-05-15T00:12:39.468Z,1021.48
2019-05-15T00:13:38.975Z,1021.42
2019-05-15T00:14:38.879Z,1021.34
2019-05-15T00:15:39.804Z,1021.37
2019-05-15T00:16:38.590Z,1021.39
2019-05-15T00:17:39.306Z,1021.42
2019-05-15T00:18:39.086Z,1021.39
2019-05-15T00:19:38.911Z,1021.40
2019-05-15T00:20:39.397Z,1021.27
2019-05-15T00:21:38.299Z,1021.34
2019-05-15T00:22:38.874Z,1021.35
2019-05-15T00:23:38.784Z,1021.34
2019-05-15T00:24:38.149Z,1021.30
2019-05-15T00:25:39.469Z,1021.35
2019-05-15T00:26:38.537Z,1021.31
2019-05-15T00:27:38.621Z,1021.29
2019-05-15T00:28:38.839Z,1021.29
2019-05-15T00:29:38.379Z,1021.33
2019-05-15T00:30:38.710Z,1021.36
2019-05-15T00:31:38.807Z,1021.35
2019-05-15T00:32:39.249Z,1021.39
2019-05-15T00:33:39.470Z,1021.36
2019-05-15T00:34:37.911Z,1021.38
2019-05-15T00:35:39.409Z,1021.37
2019-05-15T00:36:38.251Z,1021.38
2019-05-15T00:37:38.696Z,1021.34
2019-05-15T00:38:39.118Z,1021.31
2019-05-15T00:39:39.087Z,1021.32
2019-05-15T00:40:39.220Z,1021.28
2019-05-15T00:41:50.881Z,1021.29
2019-05-15T00:42:38.685Z,1021.30
2019-05-15T00:43:38.639Z,1021.31
2019-05-15T00:44:38.714Z,1021.32
2019-05-15T00:45:38.543Z,1021.32
2019-05-15T00:46:38.422Z,1021.31
2019-05-15T00:47:39.372Z,1021.29
2019-05-15T00:48:39.490Z,1021.27
2019-05-15T00:49:38.240Z,1021.26
2019-05-15T00:50:39.026Z,1021.26
2019-05-15T00:51:39.029Z,1021.29
2019-05-15T00:52:39.073Z,1021.34
2019-05-15T00:53:38.946Z,1021.30
2019-05-15T00:54:38.891Z,1021.29
2019-05-15T00:55:37.973Z,1021.34
2019-05-15T00:56:38.953Z,1021.34
2019-05-15T00:57:39.357Z,1021.29
2019-05-15T00:58:37.022Z,1021.31
2019-05-15T00:59:38.871Z,1021.33
2019-05-15T01:00:38.122Z,1021.27
2019-05-15T01:01:38.187Z,1021.30
2019-05-15T01:02:38.779Z,1021.28
2019-05-15T01:03:38.725Z,1021.28
2019-05-15T01:04:38.937Z,1021.21
2019-05-15T01:05:38.795Z,1021.20
2019-05-15T01:06:38.945Z,1021.21
2019-05-15T01:07:38.966Z,1021.23
2019-05-15T01:08:39.056Z,1021.27
2019-05-15T01:09:38.459Z,1021.17
2019-05-15T01:10:38.574Z,1021.22
2019-05-15T01:11:38.227Z,1021.22
2019-05-15T01:12:38.000Z,1021.17
2019-05-15T01:13:38.811Z,1021.20
2019-05-15T01:14:38.576Z,1021.17
2019-05-15T01:15:38.723Z,1021.17
2019-05-15T01:16:38.329Z,1021.20
2019-05-15T01:17:38.979Z,1021.18
2019-05-15T01:18:38.488Z,1021.16
2019-05-15T01:19:37.969Z,1021.11
2019-05-15T01:20:38.926Z,1021.08
2019-05-15T01:21:38.498Z,1021.09
2019-05-15T01:22:39.048Z,1021.07
2019-05-15T01:23:38.827Z,1021.05
2019-05-15T01:24:38.746Z,1021.02
2019-05-15T01:25:38.647Z,1021.06
2019-05-15T01:26:38.515Z,1021.03
2019-05-15T01:27:38.647Z,1020.98
2019-05-15T01:28:38.401Z,1021.02
2019-05-15T01:29:44.568Z,1021.02
2019-05-15T01:30:39.369Z,1020.98
2019-05-15T01:31:38.029Z,1021.02
2019-05-15T01:32:39.113Z,1021.02
2019-05-15T01:33:38.815Z,1021.00
2019-05-15T01:34:38.424Z,1020.95
2019-05-15T01:35:38.344Z,1020.97
2019-05-15T01:36:38.243Z,1020.97
2019-05-15T01:37:38.785Z,1020.98
2019-05-15T01:38:38.636Z,1021.05
2019-05-15T01:39:38.529Z,1021.01
2019-05-15T01:40:38.479Z,1020.96
2019-05-15T01:41:38.459Z,1020.96
2019-05-15T01:42:38.647Z,1020.92
2019-05-15T01:43:38.104Z,1020.99
2019-05-15T01:44:38.801Z,1020.91
2019-05-15T01:45:39.059Z,1020.92
2019-05-15T01:46:39.101Z,1020.91
2019-05-15T01:47:38.579Z,1020.93
2019-05-15T01:48:38.686Z,1020.92
2019-05-15T01:49:38.393Z,1020.91
2019-05-15T01:50:38.690Z,1020.89
2019-05-15T01:51:38.362Z,1020.93
2019-05-15T01:52:38.661Z,1020.89
2019-05-15T01:53:38.342Z,1020.88
2019-05-15T01:54:38.369Z,1020.89
2019-05-15T01:55:36.397Z,1020.90
2019-05-15T01:56:38.570Z,1020.87
2019-05-15T01:57:38.430Z,1020.86
2019-05-15T01:58:38.221Z,1020.83
2019-05-15T01:59:36.347Z,1020.83
2019-05-15T02:00:38.585Z,1020.81
2019-05-15T02:01:38.927Z,1020.82
2019-05-15T02:02:38.653Z,1020.76
2019-05-15T02:03:38.324Z,1020.73
2019-05-15T02:04:36.304Z,1020.76
2019-05-15T02:05:36.283Z,1020.82
2019-05-15T02:06:38.904Z,1020.78
2019-05-15T02:07:38.745Z,1020.84
2019-05-15T02:08:38.965Z,1020.84
2019-05-15T02:09:38.425Z,1020.82
2019-05-15T02:10:38.781Z,1020.83
2019-05-15T02:11:38.264Z,1020.87
2019-05-15T02:12:38.485Z,1020.78
2019-05-15T02:13:36.212Z,1020.80
2019-05-15T02:14:36.193Z,1020.76
2019-05-15T02:15:36.180Z,1020.80
2019-05-15T02:16:36.163Z,1020.80
2019-05-15T02:17:36.149Z,1020.75
2019-05-15T02:18:36.168Z,1020.82
2019-05-15T02:19:36.138Z,1020.84
2019-05-15T02:20:38.612Z,1020.79
2019-05-15T02:21:37.991Z,1020.79
2019-05-15T02:22:36.108Z,1020.75
2019-05-15T02:23:36.091Z,1020.78
2019-05-15T02:24:36.082Z,1020.74
2019-05-15T02:25:36.081Z,1020.73
2019-05-15T02:26:36.057Z,1020.72
2019-05-15T02:27:38.950Z,1020.69
2019-05-15T02:28:38.178Z,1020.68
2019-05-15T02:29:37.821Z,1020.68
2019-05-15T02:30:39.654Z,1020.67
2019-05-15T02:31:38.879Z,1020.73
2019-05-15T02:32:39.102Z,1020.67
2019-05-15T02:33:36.007Z,1020.70
2019-05-15T02:34:39.195Z,1020.61
2019-05-15T02:35:38.882Z,1020.61
2019-05-15T02:36:35.952Z,1020.62
2019-05-15T02:37:35.944Z,1020.62
2019-05-15T02:38:35.944Z,1020.59
2019-05-15T02:39:38.617Z,1020.62
2019-05-15T02:40:35.902Z,1020.57
2019-05-15T02:41:39.406Z,1020.59
2019-05-15T02:42:35.898Z,1020.63
2019-05-15T02:43:38.728Z,1020.69
2019-05-15T02:44:35.877Z,1020.66
2019-05-15T02:45:37.847Z,1020.61
2019-05-15T02:46:39.152Z,1020.62
2019-05-15T02:47:35.836Z,1020.66
2019-05-15T02:48:35.818Z,1020.63
2019-05-15T02:49:38.968Z,1020.63
2019-05-15T02:50:38.813Z,1020.67
2019-05-15T02:51:35.788Z,1020.62
2019-05-15T02:52:38.825Z,1020.65
2019-05-15T02:53:39.209Z,1020.63
2019-05-15T02:54:35.744Z,1020.65
2019-05-15T02:55:35.737Z,1020.65
2019-05-15T02:56:38.956Z,1020.64
2019-05-15T02:57:38.971Z,1020.65
2019-05-15T02:58:35.723Z,1020.61
2019-05-15T02:59:35.711Z,1020.63
2019-05-15T03:00:43.984Z,1020.62
2019-05-15T03:01:39.944Z,1020.63
2019-05-15T03:02:35.653Z,1020.66
2019-05-15T03:03:38.383Z,1020.62
2019-05-15T03:04:35.664Z,1020.64
2019-05-15T03:05:35.633Z,1020.61
2019-05-15T03:06:38.624Z,1020.61
2019-05-15T03:07:35.600Z,1020.60
2019-05-15T03:08:35.606Z,1020.63
2019-05-15T03:09:35.609Z,1020.62
2019-05-15T03:10:35.585Z,1020.62
2019-05-15T03:11:35.565Z,1020.60
2019-05-15T03:12:35.540Z,1020.63
2019-05-15T03:13:35.566Z,1020.65
2019-05-15T03:14:35.548Z,1020.60
2019-05-15T03:15:35.525Z,1020.61
2019-05-15T03:16:35.522Z,1020.60
2019-05-15T03:17:35.507Z,1020.60
2019-05-15T03:18:35.495Z,1020.63
2019-05-15T03:19:35.496Z,1020.61
2019-05-15T03:20:38.630Z,1020.60
2019-05-15T03:21:38.643Z,1020.67
2019-05-15T03:22:35.457Z,1020.65
2019-05-15T03:23:35.443Z,1020.64
2019-05-15T03:24:35.427Z,1020.63
2019-05-15T03:25:35.405Z,1020.65
2019-05-15T03:26:35.391Z,1020.65
2019-05-15T03:27:35.400Z,1020.63
2019-05-15T03:28:38.740Z,1020.61
2019-05-15T03:29:35.379Z,1020.63
2019-05-15T03:31:07.071Z,1020.65
2019-05-15T03:31:56.766Z,1020.62
2019-05-15T03:32:50.747Z,1020.62
2019-05-15T03:33:43.899Z,1020.59
2019-05-15T03:34:44.592Z,1020.64
2019-05-15T03:35:41.847Z,1020.65
2019-05-15T03:36:36.312Z,1020.64
2019-05-15T03:37:35.313Z,1020.65
2019-05-15T03:38:35.267Z,1020.65
2019-05-15T03:39:35.278Z,1020.59
2019-05-15T03:40:35.254Z,1020.57
2019-05-15T03:41:35.263Z,1020.67
2019-05-15T03:42:35.235Z,1020.66
2019-05-15T03:43:35.228Z,1020.64
2019-05-15T03:44:35.208Z,1020.60
2019-05-15T03:45:35.195Z,1020.63
2019-05-15T03:46:35.177Z,1020.69
2019-05-15T03:47:35.192Z,1020.58
2019-05-15T03:48:35.166Z,1020.62
2019-05-15T03:49:35.174Z,1020.60
2019-05-15T03:50:35.145Z,1020.61
2019-05-15T03:51:35.160Z,1020.58
2019-05-15T03:52:35.113Z,1020.56
2019-05-15T03:53:35.110Z,1020.54
2019-05-15T03:54:35.113Z,1020.59
2019-05-15T03:55:35.101Z,1020.54
2019-05-15T03:56:35.068Z,1020.53
2019-05-15T03:57:35.073Z,1020.57
2019-05-15T03:58:35.048Z,1020.54
2019-05-15T03:59:35.040Z,1020.53
2019-05-15T04:00:35.044Z,1020.56
2019-05-15T04:01:39.776Z,1020.54
2019-05-15T04:02:38.988Z,1020.53
2019-05-15T04:03:35.038Z,1020.59
2019-05-15T04:04:34.992Z,1020.60
2019-05-15T04:05:34.978Z,1020.59
2019-05-15T04:06:34.969Z,1020.63
2019-05-15T04:07:34.971Z,1020.57
2019-05-15T04:08:34.960Z,1020.60
2019-05-15T04:09:34.968Z,1020.62
2019-05-15T04:10:34.923Z,1020.64
2019-05-15T04:11:34.930Z,1020.60
2019-05-15T04:12:34.915Z,1020.58
2019-05-15T04:13:34.910Z,1020.57
2019-05-15T04:14:34.890Z,1020.60
2019-05-15T04:15:34.874Z,1020.64
2019-05-15T04:16:34.880Z,1020.62
2019-05-15T04:17:34.842Z,1020.64
2019-05-15T04:18:34.834Z,1020.59
2019-05-15T04:19:34.841Z,1020.62
2019-05-15T04:20:34.839Z,1020.66
2019-05-15T04:21:34.823Z,1020.69
2019-05-15T04:22:34.796Z,1020.57
2019-05-15T04:23:34.784Z,1020.59
2019-05-15T04:24:34.786Z,1020.57
2019-05-15T04:25:34.753Z,1020.57
2019-05-15T04:26:34.747Z,1020.55
2019-05-15T04:27:34.748Z,1020.56
2019-05-15T04:28:34.722Z,1020.56
2019-05-15T04:29:34.937Z,1020.54
2019-05-15T04:30:34.703Z,1020.54
2019-05-15T04:31:50.648Z,1020.52
2019-05-15T04:32:35.684Z,1020.53
2019-05-15T04:33:34.671Z,1020.57
2019-05-15T04:34:34.657Z,1020.48
2019-05-15T04:35:34.667Z,1020.50
2019-05-15T04:36:34.634Z,1020.50
2019-05-15T04:37:34.635Z,1020.45
2019-05-15T04:38:34.613Z,1020.44
2019-05-15T04:39:34.612Z,1020.37
2019-05-15T04:40:34.612Z,1020.39
2019-05-15T04:41:34.599Z,1020.41
2019-05-15T04:42:34.576Z,1020.44
2019-05-15T04:43:41.305Z,1020.47
2019-05-15T04:44:35.555Z,1020.47
2019-05-15T04:45:35.422Z,1020.45
2019-05-15T04:46:34.537Z,1020.42
2019-05-15T04:47:34.520Z,1020.48
2019-05-15T04:48:34.505Z,1020.45
2019-05-15T04:49:34.497Z,1020.50
2019-05-15T04:50:34.495Z,1020.51
2019-05-15T04:51:34.511Z,1020.47
2019-05-15T04:52:34.468Z,1020.48
2019-05-15T04:53:34.497Z,1020.45
2019-05-15T04:54:34.446Z,1020.45
2019-05-15T04:55:34.455Z,1020.44
2019-05-15T04:56:34.413Z,1020.44
2019-05-15T04:57:34.558Z,1020.46
2019-05-15T04:58:34.412Z,1020.42
2019-05-15T04:59:34.397Z,1020.44
2019-05-15T05:00:34.417Z,1020.46
2019-05-15T05:01:34.373Z,1020.40
2019-05-15T05:02:34.355Z,1020.43
2019-05-15T05:03:34.900Z,1020.44
2019-05-15T05:04:34.327Z,1020.41
2019-05-15T05:05:34.328Z,1020.38
2019-05-15T05:06:34.322Z,1020.37
2019-05-15T05:07:34.303Z,1020.41
2019-05-15T05:08:34.282Z,1020.38
2019-05-15T05:09:34.274Z,1020.42
2019-05-15T05:10:34.282Z,1020.39
2019-05-15T05:11:34.265Z,1020.45
2019-05-15T05:12:34.249Z,1020.46
2019-05-15T05:13:34.226Z,1020.43
2019-05-15T05:14:34.215Z,1020.47
2019-05-15T05:15:34.216Z,1020.46
2019-05-15T05:16:34.201Z,1020.47
2019-05-15T05:17:34.203Z,1020.47
2019-05-15T05:18:34.182Z,1020.43
2019-05-15T05:19:34.170Z,1020.45
2019-05-15T05:20:34.155Z,1020.44
2019-05-15T05:21:34.138Z,1020.39
2019-05-15T05:22:34.137Z,1020.45
2019-05-15T05:23:34.111Z,1020.44
2019-05-15T05:24:34.107Z,1020.46
2019-05-15T05:25:34.116Z,1020.43
2019-05-15T05:26:34.094Z,1020.39
2019-05-15T05:27:34.080Z,1020.43
2019-05-15T05:28:34.065Z,1020.45
2019-05-15T05:29:34.050Z,1020.43
2019-05-15T05:30:34.060Z,1020.39
2019-05-15T05:31:34.036Z,1020.38
2019-05-15T05:32:35.246Z,1020.43
2019-05-15T05:33:34.011Z,1020.43
2019-05-15T05:34:34.001Z,1020.43
2019-05-15T05:35:34.004Z,1020.49
2019-05-15T05:36:33.992Z,1020.38
2019-05-15T05:37:33.969Z,1020.43
2019-05-15T05:38:33.965Z,1020.41
2019-05-15T05:39:33.954Z,1020.47
2019-05-15T05:40:33.942Z,1020.46
2019-05-15T05:41:33.917Z,1020.45
2019-05-15T05:42:33.912Z,1020.40
2019-05-15T05:43:33.893Z,1020.43
2019-05-15T05:44:33.898Z,1020.37
2019-05-15T05:45:33.901Z,1020.45
2019-05-15T05:46:33.888Z,1020.49
2019-05-15T05:47:33.850Z,1020.42
2019-05-15T05:48:33.839Z,1020.40
2019-05-15T05:49:33.841Z,1020.49
2019-05-15T05:50:33.832Z,1020.52
2019-05-15T05:51:33.830Z,1020.48
2019-05-15T05:52:33.790Z,1020.46
2019-05-15T05:53:33.782Z,1020.47
2019-05-15T05:54:33.777Z,1020.43
2019-05-15T05:55:33.807Z,1020.45
2019-05-15T05:56:33.757Z,1020.40
2019-05-15T05:57:33.762Z,1020.33
2019-05-15T05:58:33.744Z,1020.39
2019-05-15T05:59:34.422Z,1020.33
2019-05-15T06:00:33.703Z,1020.38
2019-05-15T06:01:37.060Z,1020.37
2019-05-15T06:02:46.559Z,1020.34
2019-05-15T06:03:34.683Z,1020.36
2019-05-15T06:04:33.667Z,1020.40
2019-05-15T06:05:33.657Z,1020.30
2019-05-15T06:06:33.654Z,1020.36
2019-05-15T06:07:35.398Z,1020.31
2019-05-15T06:08:33.637Z,1020.38
2019-05-15T06:09:33.619Z,1020.40
2019-05-15T06:10:33.603Z,1020.33
2019-05-15T06:11:33.626Z,1020.40
2019-05-15T06:12:33.576Z,1020.34
2019-05-15T06:13:33.578Z,1020.38
2019-05-15T06:14:33.554Z,1020.33
2019-05-15T06:15:33.544Z,1020.36
2019-05-15T06:16:33.555Z,1020.37
2019-05-15T06:17:33.527Z,1020.36
2019-05-15T06:18:33.504Z,1020.42
2019-05-15T06:19:33.501Z,1020.41
2019-05-15T06:20:33.500Z,1020.42
2019-05-15T06:21:33.498Z,1020.43
2019-05-15T06:22:33.473Z,1020.39
2019-05-15T06:23:35.653Z,1020.43
2019-05-15T06:24:33.440Z,1020.48
2019-05-15T06:25:33.437Z,1020.40
2019-05-15T06:26:33.433Z,1020.42
2019-05-15T06:27:33.410Z,1020.35
2019-05-15T06:28:33.405Z,1020.36
2019-05-15T06:29:33.411Z,1020.41
2019-05-15T06:30:33.387Z,1020.38
2019-05-15T06:31:33.382Z,1020.42
2019-05-15T06:32:33.351Z,1020.39
2019-05-15T06:33:33.347Z,1020.35
2019-05-15T06:34:33.334Z,1020.37
2019-05-15T06:35:33.337Z,1020.39
2019-05-15T06:36:33.335Z,1020.39
2019-05-15T06:37:33.305Z,1020.32
2019-05-15T06:38:33.282Z,1020.32
2019-05-15T06:39:33.270Z,1020.34
2019-05-15T06:40:33.294Z,1020.38
2019-05-15T06:41:33.984Z,1020.43
2019-05-15T06:42:33.259Z,1020.43
2019-05-15T06:43:33.258Z,1020.39
2019-05-15T06:44:33.220Z,1020.41
2019-05-15T06:45:33.197Z,1020.56
2019-05-15T06:46:33.217Z,1020.48
2019-05-15T06:47:33.192Z,1020.45
2019-05-15T06:48:33.192Z,1020.48
2019-05-15T06:49:33.174Z,1020.53
2019-05-15T06:50:33.157Z,1020.59
2019-05-15T06:51:33.152Z,1020.57
2019-05-15T06:52:33.144Z,1020.56
2019-05-15T06:53:33.137Z,1020.53
2019-05-15T06:54:33.121Z,1020.59
2019-05-15T06:55:33.105Z,1020.60
2019-05-15T06:56:33.102Z,1020.58
2019-05-15T06:57:33.085Z,1020.50
2019-05-15T06:58:33.073Z,1020.55
2019-05-15T06:59:33.075Z,1020.54
2019-05-15T07:00:33.064Z,1020.57
2019-05-15T07:01:33.064Z,1020.60
2019-05-15T07:02:33.024Z,1020.54
2019-05-15T07:03:33.037Z,1020.53
2019-05-15T07:04:33.007Z,1020.51
2019-05-15T07:05:32.990Z,1020.44
2019-05-15T07:06:33.003Z,1020.39
2019-05-15T07:07:32.981Z,1020.36
2019-05-15T07:08:32.955Z,1020.38
2019-05-15T07:09:32.942Z,1020.33
2019-05-15T07:10:32.957Z,1020.26
2019-05-15T07:11:32.938Z,1020.21
2019-05-15T07:12:32.921Z,1020.17
2019-05-15T07:13:32.907Z,1020.19
2019-05-15T07:14:32.897Z,1020.15
2019-05-15T07:15:32.913Z,1020.12
2019-05-15T07:16:32.877Z,1020.13
2019-05-15T07:17:32.866Z,1020.10
2019-05-15T07:18:32.855Z,1020.10
2019-05-15T07:19:32.841Z,1020.07
2019-05-15T07:20:32.841Z,1020.11
2019-05-15T07:21:32.824Z,1020.13
2019-05-15T07:22:32.825Z,1020.03
2019-05-15T07:23:32.796Z,1020.05
2019-05-15T07:24:32.787Z,1020.06
2019-05-15T07:25:32.780Z,1020.06
2019-05-15T07:26:32.763Z,1020.02
2019-05-15T07:27:32.779Z,1020.05
2019-05-15T07:28:32.735Z,1020.01
2019-05-15T07:29:32.722Z,1020.04
2019-05-15T07:30:32.712Z,1019.97
2019-05-15T07:31:32.708Z,1020.09
2019-05-15T07:32:32.717Z,1020.01
2019-05-15T07:33:39.431Z,1019.95
2019-05-15T07:34:33.697Z,1019.93
2019-05-15T07:35:32.700Z,1019.97
2019-05-15T07:36:32.653Z,1020.03
2019-05-15T07:37:32.651Z,1019.96
2019-05-15T07:38:32.640Z,1020.06
2019-05-15T07:39:32.631Z,1020.13
2019-05-15T07:40:32.613Z,1020.01
2019-05-15T07:41:32.606Z,1020.11
2019-05-15T07:42:32.599Z,1020.13
2019-05-15T07:43:32.577Z,1020.13
2019-05-15T07:44:32.577Z,1020.05
2019-05-15T07:45:32.563Z,1020.05
2019-05-15T07:46:32.550Z,1020.01
2019-05-15T07:47:32.554Z,1019.95
2019-05-15T07:48:32.533Z,1019.95
2019-05-15T07:49:32.512Z,1020.05
2019-05-15T07:50:32.508Z,1020.05
2019-05-15T07:51:32.504Z,1019.97
2019-05-15T07:52:32.502Z,1020.00
2019-05-15T07:53:32.472Z,1020.10
2019-05-15T07:54:32.447Z,1020.06
2019-05-15T07:55:32.449Z,1020.17
2019-05-15T07:56:32.441Z,1020.09
2019-05-15T07:57:32.438Z,1020.11
2019-05-15T07:58:32.422Z,1020.11
2019-05-15T07:59:32.415Z,1020.15
2019-05-15T08:00:32.388Z,1020.14
2019-05-15T08:01:32.392Z,1020.16
2019-05-15T08:02:32.379Z,1020.22
2019-05-15T08:03:32.361Z,1020.26
2019-05-15T08:04:33.008Z,1020.04
2019-05-15T08:05:32.349Z,1020.25
2019-05-15T08:06:32.353Z,1020.18
2019-05-15T08:07:32.338Z,1020.17
2019-05-15T08:08:32.305Z,1020.19
2019-05-15T08:09:32.292Z,1020.30
2019-05-15T08:10:32.292Z,1020.31
2019-05-15T08:11:32.279Z,1020.24
2019-05-15T08:12:32.274Z,1020.25
2019-05-15T08:13:32.244Z,1020.23
2019-05-15T08:14:32.261Z,1020.33
2019-05-15T08:15:32.224Z,1020.30
2019-05-15T08:16:32.221Z,1020.32
2019-05-15T08:17:32.232Z,1020.24
2019-05-15T08:18:32.205Z,1020.21
2019-05-15T08:19:32.190Z,1020.26
2019-05-15T08:20:32.177Z,1020.27
2019-05-15T08:21:32.158Z,1020.23
2019-05-15T08:22:32.156Z,1020.28
2019-05-15T08:23:32.148Z,1020.31
2019-05-15T08:24:32.142Z,1020.24
2019-05-15T08:25:35.329Z,1020.25
2019-05-15T08:26:32.108Z,1020.26
2019-05-15T08:27:32.939Z,1020.18
2019-05-15T08:28:32.095Z,1020.21
2019-05-15T08:29:32.085Z,1020.24
2019-05-15T08:30:32.080Z,1020.19
2019-05-15T08:31:32.063Z,1020.23
2019-05-15T08:32:32.070Z,1020.13
2019-05-15T08:33:32.033Z,1020.09
2019-05-15T08:34:32.018Z,1020.07
2019-05-15T08:35:32.010Z,1020.10
2019-05-15T08:36:32.013Z,1020.14
2019-05-15T08:37:32.005Z,1020.04
2019-05-15T08:38:31.996Z,1020.06
2019-05-15T08:39:31.973Z,1020.04
2019-05-15T08:40:31.960Z,1019.96
2019-05-15T08:41:31.950Z,1019.94
2019-05-15T08:42:32.364Z,1019.98
2019-05-15T08:43:31.931Z,1019.97
2019-05-15T08:44:31.914Z,1019.98
2019-05-15T08:45:31.903Z,1020.00
2019-05-15T08:46:31.883Z,1019.98
2019-05-15T08:47:31.897Z,1019.85
2019-05-15T08:48:32.893Z,1019.97
2019-05-15T08:49:31.867Z,1020.01
2019-05-15T08:50:31.882Z,1019.99
2019-05-15T08:51:31.851Z,1019.96
2019-05-15T08:52:31.838Z,1019.93
2019-05-15T08:53:31.814Z,1019.85
2019-05-15T08:54:31.799Z,1019.97
2019-05-15T08:55:31.790Z,1019.89
2019-05-15T08:56:31.785Z,1019.87
2019-05-15T08:57:31.790Z,1019.86
2019-05-15T08:58:31.748Z,1019.81
2019-05-15T08:59:31.739Z,1019.80
2019-05-15T09:00:31.738Z,1019.84
2019-05-15T09:01:31.729Z,1019.79
2019-05-15T09:02:31.751Z,1019.82
2019-05-15T09:03:31.712Z,1019.76
2019-05-15T09:04:34.988Z,1019.71
2019-05-15T09:05:31.680Z,1019.76
2019-05-15T09:06:31.674Z,1019.73
2019-05-15T09:07:31.729Z,1019.75
2019-05-15T09:08:31.743Z,1019.77
2019-05-15T09:09:31.648Z,1019.69
2019-05-15T09:10:31.634Z,1019.74
2019-05-15T09:11:31.626Z,1019.69
2019-05-15T09:12:31.610Z,1019.71
2019-05-15T09:13:31.612Z,1019.68
2019-05-15T09:14:31.600Z,1019.78
2019-05-15T09:15:31.582Z,1019.87
2019-05-15T09:16:31.559Z,1019.88
2019-05-15T09:17:31.558Z,1019.75
2019-05-15T09:18:31.558Z,1019.73
2019-05-15T09:19:31.536Z,1019.66
2019-05-15T09:20:31.529Z,1019.72
2019-05-15T09:21:31.518Z,1019.78
2019-05-15T09:22:31.508Z,1019.74
2019-05-15T09:23:31.533Z,1019.68
2019-05-15T09:24:31.479Z,1019.69
2019-05-15T09:25:31.464Z,1019.82
2019-05-15T09:26:31.457Z,1019.85
2019-05-15T09:27:31.440Z,1019.75
2019-05-15T09:28:31.464Z,1019.72
2019-05-15T09:29:31.432Z,1019.72
2019-05-15T09:30:31.422Z,1019.61
2019-05-15T09:31:31.419Z,1019.55
2019-05-15T09:32:31.456Z,1019.56
2019-05-15T09:33:31.401Z,1019.55
2019-05-15T09:34:46.667Z,1019.62
2019-05-15T09:35:32.377Z,1019.63
2019-05-15T09:36:31.349Z,1019.56
2019-05-15T09:37:33.687Z,1019.56
2019-05-15T09:38:31.339Z,1019.50
2019-05-15T09:39:31.313Z,1019.50
2019-05-15T09:40:42.424Z,1019.48
2019-05-15T09:41:32.294Z,1019.46
2019-05-15T09:42:31.291Z,1019.54
2019-05-15T09:43:31.283Z,1019.47
2019-05-15T09:44:31.271Z,1019.44
2019-05-15T09:45:31.251Z,1019.40
2019-05-15T09:46:31.250Z,1019.39
2019-05-15T09:47:31.271Z,1019.34
2019-05-15T09:48:31.231Z,1019.37
2019-05-15T09:49:31.213Z,1019.29
2019-05-15T09:50:31.203Z,1019.32
2019-05-15T09:51:31.186Z,1019.31
2019-05-15T09:52:31.195Z,1019.24
2019-05-15T09:53:31.186Z,1019.29
2019-05-15T09:54:31.165Z,1019.19
2019-05-15T09:55:31.154Z,1019.25
2019-05-15T09:56:31.136Z,1019.25
2019-05-15T09:57:31.130Z,1019.16
2019-05-15T09:58:31.129Z,1019.13
2019-05-15T09:59:31.102Z,1019.13
2019-05-15T10:00:31.131Z,1019.08
2019-05-15T10:01:31.093Z,1019.12
2019-05-15T10:02:31.068Z,1019.06
2019-05-15T10:03:31.069Z,1019.07
2019-05-15T10:04:31.058Z,1019.04
2019-05-15T10:05:31.054Z,1019.07
2019-05-15T10:06:31.036Z,1019.00
2019-05-15T10:07:31.022Z,1019.00
2019-05-15T10:08:31.049Z,1019.05
2019-05-15T10:09:30.992Z,1019.10
2019-05-15T10:10:30.982Z,1019.03
2019-05-15T10:11:30.978Z,1019.03
2019-05-15T10:12:34.821Z,1019.08
2019-05-15T10:13:30.971Z,1019.03
2019-05-15T10:14:30.954Z,1019.03
2019-05-15T10:15:30.936Z,1019.01
2019-05-15T10:16:30.924Z,1019.04
2019-05-15T10:17:30.909Z,1019.02
2019-05-15T10:18:30.922Z,1019.01
2019-05-15T10:19:30.897Z,1019.04
2019-05-15T10:20:30.881Z,1018.94
2019-05-15T10:21:32.584Z,1018.98
2019-05-15T10:22:30.856Z,1019.07
2019-05-15T10:23:30.850Z,1018.99
2019-05-15T10:24:30.842Z,1018.89
2019-05-15T10:25:30.823Z,1018.86
2019-05-15T10:26:30.816Z,1018.82
2019-05-15T10:27:30.800Z,1018.80
2019-05-15T10:28:30.803Z,1018.85
2019-05-15T10:29:30.774Z,1018.82
2019-05-15T10:30:30.761Z,1018.81
2019-05-15T10:31:30.768Z,1018.80
2019-05-15T10:32:30.752Z,1018.78
2019-05-15T10:33:30.733Z,1018.80
2019-05-15T10:34:30.731Z,1018.73
2019-05-15T10:35:31.807Z,1018.69
2019-05-15T10:36:30.702Z,1018.70
2019-05-15T10:37:30.687Z,1018.60
2019-05-15T10:38:30.712Z,1018.64
2019-05-15T10:39:30.679Z,1018.65
2019-05-15T10:40:30.648Z,1018.73
2019-05-15T10:41:30.644Z,1018.61
2019-05-15T10:42:30.633Z,1018.56
2019-05-15T10:43:30.621Z,1018.61
2019-05-15T10:44:30.627Z,1018.59
2019-05-15T10:45:30.609Z,1018.65
2019-05-15T10:46:30.587Z,1018.55
2019-05-15T10:47:30.581Z,1018.61
2019-05-15T10:48:30.556Z,1018.57
2019-05-15T10:49:30.559Z,1018.51
2019-05-15T10:50:30.544Z,1018.52
2019-05-15T10:51:30.548Z,1018.50
2019-05-15T10:52:30.513Z,1018.49
2019-05-15T10:53:30.504Z,1018.40
2019-05-15T10:54:30.527Z,1018.43
2019-05-15T10:55:30.489Z,1018.48
2019-05-15T10:56:30.489Z,1018.44
2019-05-15T10:57:30.473Z,1018.48
2019-05-15T10:58:30.456Z,1018.47
2019-05-15T10:59:30.459Z,1018.46
2019-05-15T11:00:30.429Z,1018.43
2019-05-15T11:01:30.416Z,1018.43
2019-05-15T11:02:30.416Z,1018.44
2019-05-15T11:03:30.396Z,1018.37
2019-05-15T11:04:30.408Z,1018.35
2019-05-15T11:05:40.648Z,1018.40
2019-05-15T11:06:31.365Z,1018.39
2019-05-15T11:07:30.356Z,1018.33
2019-05-15T11:08:30.351Z,1018.28
2019-05-15T11:09:30.359Z,1018.36
2019-05-15T11:10:30.324Z,1018.22
2019-05-15T11:11:30.337Z,1018.28
2019-05-15T11:12:30.294Z,1018.24
2019-05-15T11:13:30.282Z,1018.25
2019-05-15T11:14:30.303Z,1018.21
2019-05-15T11:15:30.263Z,1018.22
2019-05-15T11:16:30.265Z,1018.16
2019-05-15T11:17:31.536Z,1018.18
2019-05-15T11:18:30.738Z,1018.17
2019-05-15T11:19:35.916Z,1018.22
2019-05-15T11:20:31.211Z,1018.22
2019-05-15T11:21:30.198Z,1018.16
2019-05-15T11:22:30.205Z,1018.15
2019-05-15T11:23:30.183Z,1018.17
2019-05-15T11:24:32.397Z,1018.15
2019-05-15T11:25:30.245Z,1018.21
2019-05-15T11:26:33.469Z,1018.18
2019-05-15T11:27:31.323Z,1018.18
2019-05-15T11:28:32.327Z,1018.13
2019-05-15T11:29:30.129Z,1018.11
2019-05-15T11:30:30.119Z,1018.15
2019-05-15T11:31:30.093Z,1018.21
2019-05-15T11:32:30.077Z,1018.20
2019-05-15T11:33:30.068Z,1018.15
2019-05-15T11:34:30.073Z,1018.21
2019-05-15T11:35:30.050Z,1018.21
2019-05-15T11:36:30.041Z,1018.06
2019-05-15T11:37:30.029Z,1018.11
2019-05-15T11:38:30.008Z,1018.11
2019-05-15T11:39:30.040Z,1018.15
2019-05-15T11:40:30.015Z,1018.11
2019-05-15T11:41:30.011Z,1018.16
2019-05-15T11:42:29.968Z,1018.16
2019-05-15T11:43:29.960Z,1018.17
2019-05-15T11:44:30.551Z,1018.17
2019-05-15T11:45:29.942Z,1018.13
2019-05-15T11:46:29.954Z,1018.16
2019-05-15T11:47:29.912Z,1018.12
2019-05-15T11:48:30.233Z,1018.10
2019-05-15T11:49:29.945Z,1018.03
2019-05-15T11:50:29.892Z,1018.06
2019-05-15T11:51:29.870Z,1018.07
2019-05-15T11:52:29.867Z,1017.99
2019-05-15T11:53:29.849Z,1017.99
2019-05-15T11:54:29.838Z,1018.08
2019-05-15T11:55:29.839Z,1018.02
2019-05-15T11:56:29.852Z,1018.11
2019-05-15T11:57:42.591Z,1018.05
2019-05-15T11:58:30.790Z,1018.09
2019-05-15T11:59:30.217Z,1018.07
2019-05-15T12:00:30.433Z,1018.03
2019-05-15T12:01:29.762Z,1018.06
2019-05-15T12:02:29.765Z,1018.03
2019-05-15T12:03:29.742Z,1018.00
2019-05-15T12:04:33.768Z,1017.97
2019-05-15T12:05:29.726Z,1017.95